Time;durP1;ratioP1;P1;durP2;ratioP2;P2;SDS_P1;SDS_P2;PMS_P1;PMS_P2;Temp;Humidity;BMP_temperature;BMP_pressure;BME280_temperature;BME280_humidity;BME280_pressure;Samples;Min_cycle;Max_cycle;Signal;HPM_P1;HPM_P2
2021/12/05 00:18:46;;;;;;;28.10;15.52;;;3.90;98.40;;;;;;4934570;29;20043;-64
2021/12/05 00:21:38;;;;;;;26.60;15.80;;;3.90;98.40;;;;;;4934420;29;20063;-64
2021/12/05 00:24:11;;;;;;;24.88;14.45;;;3.90;98.50;;;;;;4933265;29;20032;-63
2021/12/05 00:26:38;;;;;;;26.40;16.00;;;3.90;98.80;;;;;;4934180;29;20056;-64
2021/12/05 00:29:12;;;;;;;26.40;15.57;;;3.90;98.50;;;;;;4933724;29;20039;-63
2021/12/05 00:40:28;;;;;;;26.80;17.45;;;3.90;98.60;;;;;;4934509;29;20452;-65
2021/12/05 00:51:57;;;;;;;24.63;13.98;;;3.80;98.80;;;;;;4920397;29;20098;-64
2021/12/05 00:54:52;;;;;;;20.67;13.43;;;3.80;98.80;;;;;;4933674;29;20037;-64
2021/12/05 00:57:31;;;;;;;19.60;13.07;;;3.80;98.80;;;;;;4933029;29;20027;-64
2021/12/05 01:00:08;;;;;;;18.13;11.88;;;3.80;98.80;;;;;;4933810;29;20103;-65
2021/12/05 01:03:14;;;;;;;22.52;12.77;;;3.80;98.80;;;;;;4929147;29;20105;-63
2021/12/05 01:11:15;;;;;;;22.67;13.27;;;3.80;98.80;;;;;;4936512;29;20036;-64
2021/12/05 01:16:29;;;;;;;23.88;13.95;;;3.80;98.90;;;;;;4937001;29;20032;-64
2021/12/05 01:18:55;;;;;;;22.85;14.40;;;3.70;99.00;;;;;;4937530;29;20047;-65
2021/12/05 01:21:24;;;;;;;21.65;13.38;;;3.70;99.00;;;;;;4936333;29;20043;-65
2021/12/05 01:24:10;;;;;;;21.67;13.00;;;3.80;99.10;;;;;;4936960;29;20055;-65
2021/12/05 01:26:43;;;;;;;20.35;13.50;;;3.80;99.10;;;;;;4936803;29;20039;-65
2021/12/05 01:29:23;;;;;;;21.50;13.68;;;3.80;99.10;;;;;;4937823;29;20074;-64
2021/12/05 01:37:22;;;;;;;22.30;13.63;;;3.80;99.10;;;;;;4936840;29;19917;-64
2021/12/05 01:40:28;;;;;;;22.08;14.43;;;3.80;99.10;;;;;;4937293;29;20035;-64
2021/12/05 01:43:25;;;;;;;23.63;15.23;;;3.80;99.20;;;;;;4938054;29;20035;-63
2021/12/05 01:46:09;;;;;;;26.02;14.50;;;3.80;99.10;;;;;;4938009;29;20039;-66
2021/12/05 01:51:44;;;;;;;24.58;14.10;;;3.80;99.20;;;;;;4933716;29;20071;-64
2021/12/05 01:54:33;;;;;;;22.80;13.73;;;3.80;99.20;;;;;;4936375;29;20040;-64
2021/12/05 02:10:54;;;;;;;20.58;14.07;;;3.90;99.30;;;;;;4938206;29;20032;-64
2021/12/05 02:16:32;;;;;;;22.37;14.57;;;3.90;99.30;;;;;;4935917;29;20039;-63
2021/12/05 02:30:06;;;;;;;27.23;15.75;;;3.90;99.20;;;;;;4936391;29;20366;-64
2021/12/05 02:33:02;;;;;;;26.77;16.70;;;3.80;99.20;;;;;;4934773;29;20043;-64
2021/12/05 02:41:08;;;;;;;29.40;16.58;;;3.90;99.30;;;;;;4936462;29;20031;-64
2021/12/05 02:43:40;;;;;;;28.50;17.55;;;3.90;99.30;;;;;;4935567;29;20074;-64
2021/12/05 02:46:06;;;;;;;28.35;17.50;;;3.90;99.30;;;;;;4935232;29;20499;-65
2021/12/05 02:48:36;;;;;;;32.60;19.63;;;3.90;99.30;;;;;;4925569;29;20096;-64
2021/12/05 02:51:06;;;;;;;29.83;18.05;;;3.80;99.30;;;;;;4934710;29;20066;-64
2021/12/05 02:53:38;;;;;;;35.47;18.92;;;3.90;99.40;;;;;;4942522;29;20039;-64
2021/12/05 02:56:05;;;;;;;31.98;18.98;;;3.90;99.40;;;;;;4935430;29;20031;-64
2021/12/05 02:58:42;;;;;;;30.50;18.30;;;3.90;99.40;;;;;;4935356;29;20539;-64
2021/12/05 03:01:19;;;;;;;32.10;19.45;;;3.90;99.40;;;;;;4935856;29;20028;-64
2021/12/05 03:03:46;;;;;;;29.15;18.55;;;3.90;99.40;;;;;;4935448;29;20123;-64
2021/12/05 03:06:17;;;;;;;30.70;18.77;;;4.00;99.50;;;;;;4933640;29;20028;-65
2021/12/05 03:08:47;;;;;;;31.15;18.30;;;3.90;99.50;;;;;;4934892;29;20400;-64
2021/12/05 03:11:13;;;;;;;32.70;18.08;;;3.90;99.50;;;;;;4935797;29;20042;-65
2021/12/05 03:13:40;;;;;;;32.30;18.98;;;4.00;99.50;;;;;;4935135;29;20046;-64
2021/12/05 03:16:07;;;;;;;33.78;19.65;;;4.00;99.40;;;;;;4935011;29;20119;-65
2021/12/05 03:18:33;;;;;;;34.20;20.17;;;4.00;99.40;;;;;;4935362;28;20475;-65
2021/12/05 03:20:58;;;;;;;31.48;18.92;;;3.90;99.40;;;;;;4934092;29;20079;-65
2021/12/05 03:23:25;;;;;;;34.70;21.08;;;3.90;99.50;;;;;;4934041;29;20662;-65
2021/12/05 03:25:51;;;;;;;33.65;19.63;;;4.00;99.50;;;;;;4935605;29;20079;-66
2021/12/05 03:28:17;;;;;;;30.85;18.67;;;4.00;99.50;;;;;;4932754;29;20110;-65
2021/12/05 03:30:43;;;;;;;35.60;22.15;;;4.00;99.50;;;;;;4935089;29;20123;-63
2021/12/05 03:33:09;;;;;;;34.50;20.25;;;4.00;99.40;;;;;;4934199;29;20050;-63
2021/12/05 03:35:35;;;;;;;36.38;20.58;;;4.00;99.40;;;;;;4933572;29;20137;-63
2021/12/05 03:38:00;;;;;;;37.05;22.35;;;4.00;99.40;;;;;;4934414;29;20104;-63
2021/12/05 03:40:29;;;;;;;38.17;21.92;;;4.00;99.40;;;;;;4935128;29;20039;-63
2021/12/05 03:42:57;;;;;;;37.67;21.33;;;4.00;99.50;;;;;;4934632;29;20361;-63
2021/12/05 03:45:28;;;;;;;36.17;21.33;;;4.00;99.50;;;;;;4935042;29;20407;-63
2021/12/05 03:47:56;;;;;;;35.72;20.92;;;4.00;99.50;;;;;;4925002;29;20043;-64
2021/12/05 03:50:22;;;;;;;37.78;22.00;;;4.00;99.50;;;;;;4933934;29;20547;-64
2021/12/05 03:52:49;;;;;;;36.92;21.38;;;4.10;99.50;;;;;;4934351;29;20056;-64
2021/12/05 03:55:15;;;;;;;37.40;21.48;;;4.10;99.50;;;;;;4935005;29;20031;-64
2021/12/05 03:57:41;;;;;;;39.08;23.73;;;4.10;99.50;;;;;;4934283;29;20148;-64
2021/12/05 04:00:14;;;;;;;37.58;22.00;;;4.20;99.50;;;;;;4934301;29;20118;-63
2021/12/05 04:02:40;;;;;;;36.25;21.13;;;4.10;99.50;;;;;;4934164;29;20096;-63
2021/12/05 04:05:06;;;;;;;38.45;22.10;;;4.20;99.50;;;;;;4922990;29;20035;-64
2021/12/05 04:07:32;;;;;;;35.85;20.17;;;4.20;99.50;;;;;;4934111;29;20755;-64
2021/12/05 04:09:58;;;;;;;36.40;22.33;;;4.20;99.50;;;;;;4935043;29;20086;-64
2021/12/05 04:12:23;;;;;;;35.95;20.73;;;4.20;99.50;;;;;;4916157;29;20051;-63
2021/12/05 04:14:54;;;;;;;32.67;21.08;;;4.20;99.50;;;;;;4933626;29;20036;-63
2021/12/05 04:17:20;;;;;;;37.28;21.98;;;4.20;99.50;;;;;;4934452;29;20130;-63
2021/12/05 04:19:46;;;;;;;35.80;21.48;;;4.30;99.50;;;;;;4934210;29;20036;-63
2021/12/05 04:22:12;;;;;;;34.63;20.02;;;4.30;99.50;;;;;;4934863;29;20175;-64
2021/12/05 04:24:38;;;;;;;37.67;22.25;;;4.30;99.50;;;;;;4932538;29;20581;-64
2021/12/05 04:27:05;;;;;;;37.30;21.98;;;4.30;99.40;;;;;;4933360;29;20028;-64
2021/12/05 04:29:32;;;;;;;35.80;22.85;;;4.20;99.40;;;;;;4933884;29;20403;-64
2021/12/05 04:31:58;;;;;;;38.92;21.60;;;4.20;99.40;;;;;;4934155;29;20036;-64
2021/12/05 04:34:24;;;;;;;37.42;22.48;;;4.20;99.40;;;;;;4934056;29;20064;-64
2021/12/05 04:36:55;;;;;;;35.97;21.58;;;4.20;99.40;;;;;;4933921;29;20037;-63
2021/12/05 04:39:21;;;;;;;38.83;22.25;;;4.20;99.40;;;;;;4933480;29;20043;-62
2021/12/05 04:41:47;;;;;;;35.05;21.25;;;4.20;99.40;;;;;;4932819;29;20107;-63
2021/12/05 04:44:12;;;;;;;41.55;21.88;;;4.20;99.40;;;;;;4933742;29;20039;-64
2021/12/05 04:46:39;;;;;;;37.15;22.02;;;4.30;99.50;;;;;;4933352;29;20103;-64
2021/12/05 04:49:06;;;;;;;35.53;22.05;;;4.20;99.40;;;;;;4937017;29;20028;-65
2021/12/05 04:51:38;;;;;;;38.42;21.83;;;4.20;99.40;;;;;;4933680;29;20079;-64
2021/12/05 04:54:06;;;;;;;40.55;23.40;;;4.20;99.40;;;;;;4933391;29;20110;-63
2021/12/05 04:56:32;;;;;;;39.35;23.52;;;4.20;99.30;;;;;;4933302;29;20039;-64
2021/12/05 04:58:58;;;;;;;38.00;23.00;;;4.20;99.30;;;;;;4932645;29;20039;-64
2021/12/05 05:01:25;;;;;;;38.63;22.65;;;4.20;99.40;;;;;;4933323;29;20118;-64
2021/12/05 05:03:52;;;;;;;39.85;23.48;;;4.20;99.40;;;;;;4934037;29;20098;-64
2021/12/05 05:06:19;;;;;;;39.58;23.15;;;4.20;99.40;;;;;;4933775;29;20024;-64
2021/12/05 05:08:49;;;;;;;40.47;23.27;;;4.20;99.30;;;;;;4933670;29;20039;-64
2021/12/05 05:11:16;;;;;;;41.60;24.08;;;4.10;99.20;;;;;;4934037;29;20032;-64
2021/12/05 05:13:43;;;;;;;40.05;21.75;;;4.10;99.30;;;;;;4932488;28;20132;-64
2021/12/05 05:16:10;;;;;;;37.95;22.00;;;4.10;99.30;;;;;;4933728;29;20106;-64
2021/12/05 05:18:43;;;;;;;43.42;24.00;;;4.10;99.30;;;;;;4933587;29;20502;-64
2021/12/05 05:40:14;;;;;;;43.85;24.27;;;4.00;99.40;;;;;;4933645;29;20849;-63
2021/12/05 05:50:38;;;;;;;41.92;24.05;;;4.00;99.40;;;;;;4932705;29;20056;-64
2021/12/05 05:53:04;;;;;;;43.33;23.67;;;4.00;99.40;;;;;;4934209;29;20048;-64
2021/12/05 05:55:31;;;;;;;42.42;24.20;;;4.10;99.50;;;;;;4936925;29;20807;-65
2021/12/05 05:58:04;;;;;;;40.75;24.05;;;4.10;99.40;;;;;;4935868;29;20026;-62
2021/12/05 06:00:38;;;;;;;46.53;25.40;;;4.10;99.40;;;;;;4935257;29;20050;-64
2021/12/05 06:03:21;;;;;;;44.35;26.23;;;4.10;99.40;;;;;;4936954;29;20032;-64
2021/12/05 06:06:06;;;;;;;49.05;25.83;;;4.00;99.50;;;;;;4936241;29;20040;-64
2021/12/05 06:08:35;;;;;;;42.25;24.17;;;4.00;99.40;;;;;;4933313;29;20035;-64
2021/12/05 06:11:04;;;;;;;40.17;25.02;;;3.90;99.30;;;;;;4936802;29;20036;-64
2021/12/05 06:13:29;;;;;;;46.67;24.40;;;3.90;99.30;;;;;;4932259;29;20040;-64
2021/12/05 06:15:56;;;;;;;50.83;25.50;;;3.90;99.40;;;;;;4933833;29;22616;-64
2021/12/05 06:18:22;;;;;;;44.65;26.85;;;3.80;99.40;;;;;;4932143;29;20055;-64
2021/12/05 06:20:48;;;;;;;49.78;25.15;;;3.90;99.40;;;;;;4946137;28;20103;-63
2021/12/05 06:23:15;;;;;;;46.20;25.52;;;3.90;99.50;;;;;;4929265;29;20036;-64
2021/12/05 06:25:44;;;;;;;46.67;24.85;;;3.90;99.50;;;;;;4936472;29;20035;-64
2021/12/05 06:28:12;;;;;;;50.10;27.90;;;3.90;99.50;;;;;;4932885;29;20024;-64
2021/12/05 06:39:22;;;;;;;41.40;23.92;;;3.80;99.60;;;;;;4930759;29;20039;-63
2021/12/05 06:42:01;;;;;;;48.50;25.13;;;3.90;99.60;;;;;;4931121;29;20044;-63
2021/12/05 06:47:12;;;;;;;46.92;26.23;;;4.00;99.60;;;;;;4934524;29;20042;-63
2021/12/05 06:49:40;;;;;;;48.40;26.17;;;4.00;99.60;;;;;;4948072;28;20098;-64
2021/12/05 06:52:07;;;;;;;51.03;27.25;;;4.00;99.60;;;;;;4932848;29;20561;-64
2021/12/05 06:54:33;;;;;;;46.92;26.42;;;4.00;99.60;;;;;;4930765;29;20039;-64
2021/12/05 06:56:59;;;;;;;47.25;26.25;;;4.10;99.70;;;;;;4930360;29;20376;-64
2021/12/05 06:59:24;;;;;;;49.60;27.52;;;4.00;99.70;;;;;;4931884;29;20020;-64
2021/12/05 07:01:50;;;;;;;48.92;26.17;;;4.10;99.60;;;;;;4931488;29;20534;-64
2021/12/05 07:04:40;;;;;;;45.78;25.58;;;4.00;99.60;;;;;;4932268;29;20107;-64
2021/12/05 07:07:02;;;;;;;57.60;30.98;;;3.90;99.60;;;;;;4932291;29;20031;-64
2021/12/05 07:09:28;;;;;;;45.72;25.67;;;3.80;99.60;;;;;;4933525;29;20102;-64
2021/12/05 07:14:47;;;;;;;60.20;28.05;;;3.80;99.70;;;;;;4934803;29;20036;-64
2021/12/05 07:20:14;;;;;;;45.75;25.08;;;3.70;99.60;;;;;;4935143;29;20032;-64
2021/12/05 07:22:56;;;;;;;45.55;25.63;;;3.70;99.70;;;;;;4934733;29;20036;-63
2021/12/05 07:25:29;;;;;;;42.03;22.73;;;3.60;99.70;;;;;;4935424;29;20059;-64
2021/12/05 07:41:49;;;;;;;52.50;27.90;;;3.50;99.80;;;;;;4934824;29;20059;-63
2021/12/05 07:44:15;;;;;;;45.25;25.13;;;3.50;99.80;;;;;;4935084;29;20028;-64
2021/12/05 07:46:41;;;;;;;48.13;25.85;;;3.60;99.90;;;;;;4934732;29;20042;-64
2021/12/05 07:49:10;;;;;;;46.47;24.95;;;3.60;99.90;;;;;;4930548;29;20027;-62
2021/12/05 07:51:39;;;;;;;44.05;24.52;;;3.60;99.90;;;;;;4931305;29;20067;-64
2021/12/05 07:56:40;;;;;;;49.08;25.63;;;3.70;99.90;;;;;;4934309;29;20043;-64
2021/12/05 08:14:24;;;;;;;49.67;25.63;;;3.90;99.90;;;;;;4932076;29;20051;-63
2021/12/05 08:15:39;;;;;;;51.30;27.17;;;3.90;99.80;;;;;;4925155;29;20040;-63
2021/12/05 08:18:05;;;;;;;51.65;28.10;;;3.90;99.80;;;;;;4927613;29;20047;-63
2021/12/05 08:20:37;;;;;;;46.45;24.83;;;3.90;99.80;;;;;;4928149;29;20475;-63
2021/12/05 08:23:05;;;;;;;51.70;28.13;;;3.90;99.80;;;;;;4937529;28;20463;-63
2021/12/05 08:25:36;;;;;;;50.63;27.52;;;3.90;99.70;;;;;;4932523;29;20119;-63
2021/12/05 08:30:54;;;;;;;54.42;32.47;;;3.90;99.70;;;;;;4931195;29;20027;-63
2021/12/05 08:33:42;;;;;;;52.42;27.65;;;3.90;99.70;;;;;;4932537;29;20054;-63
2021/12/05 08:36:40;;;;;;;55.03;28.95;;;3.90;99.80;;;;;;4933769;29;20038;-63
2021/12/05 08:39:27;;;;;;;50.00;26.33;;;4.00;99.80;;;;;;4934926;29;20035;-63
2021/12/05 09:08:41;;;;;;;58.27;29.10;;;4.10;99.80;;;;;;4934933;29;20031;-64
2021/12/05 09:21:26;;;;;;;56.00;29.55;;;4.20;99.50;;;;;;4932757;29;20028;-64
2021/12/05 09:26:36;;;;;;;54.13;27.27;;;4.10;99.50;;;;;;4925832;29;20070;-65
2021/12/05 09:38:35;;;;;;;56.25;28.70;;;4.20;99.70;;;;;;4932571;29;20448;-67
2021/12/05 10:01:53;;;;;;;56.63;27.88;;;4.30;99.50;;;;;;4927935;29;20154;-65
2021/12/05 10:07:00;;;;;;;51.28;26.83;;;4.60;99.70;;;;;;4938834;29;20529;-65
2021/12/05 10:10:03;;;;;;;56.03;28.25;;;4.60;99.60;;;;;;4939727;29;20130;-65
2021/12/05 10:12:55;;;;;;;56.72;30.35;;;4.60;99.50;;;;;;4942218;29;20506;-64
2021/12/05 10:15:37;;;;;;;55.50;29.30;;;4.60;99.50;;;;;;4934326;29;20087;-65
2021/12/05 10:26:34;;;;;;;61.17;31.15;;;4.80;99.60;;;;;;4917714;29;20047;-64
2021/12/05 10:35:13;;;;;;;;;;;4.90;99.50;;;;;;4933611;29;20043;-65
2021/12/05 10:38:02;;;;;;;51.10;26.70;;;4.90;99.50;;;;;;4932627;29;19911;-65
2021/12/05 10:40:39;;;;;;;58.17;31.17;;;4.90;99.70;;;;;;4933379;29;20035;-64
2021/12/05 10:43:20;;;;;;;69.45;36.45;;;5.00;99.30;;;;;;4932479;29;20038;-65
2021/12/05 10:45:48;;;;;;;67.13;33.10;;;5.00;99.20;;;;;;4934856;29;20038;-65
2021/12/05 10:48:26;;;;;;;59.35;28.77;;;5.10;99.20;;;;;;4941655;29;20020;-65
2021/12/05 10:50:59;;;;;;;56.00;30.77;;;5.10;99.20;;;;;;4934761;28;20055;-64
2021/12/05 10:53:29;;;;;;;54.35;28.70;;;5.20;99.20;;;;;;4939488;28;20094;-64
2021/12/05 10:56:07;;;;;;;54.53;29.08;;;5.20;99.10;;;;;;4932393;29;20031;-65
2021/12/05 10:58:38;;;;;;;56.95;29.45;;;5.20;99.00;;;;;;4931734;29;20044;-65
2021/12/05 11:01:27;;;;;;;56.10;30.45;;;5.20;99.00;;;;;;4929922;29;20055;-65
2021/12/05 11:04:10;;;;;;;58.55;30.45;;;5.30;99.10;;;;;;4936870;29;20042;-65
2021/12/05 11:06:35;;;;;;;59.50;31.10;;;5.30;99.10;;;;;;4934565;29;20094;-65
2021/12/05 11:09:08;;;;;;;58.63;30.65;;;5.30;99.00;;;;;;4933402;29;20114;-65
2021/12/05 11:11:35;;;;;;;51.70;30.25;;;5.40;98.90;;;;;;4933740;29;20054;-63
2021/12/05 11:14:07;;;;;;;56.00;28.90;;;5.40;98.90;;;;;;4948637;28;20042;-63
2021/12/05 11:16:40;;;;;;;53.92;29.05;;;5.30;98.90;;;;;;4933713;29;20502;-65
2021/12/05 11:19:43;;;;;;;62.83;31.20;;;5.30;98.70;;;;;;4944112;29;20046;-66
2021/12/05 11:22:28;;;;;;;58.63;30.45;;;5.30;98.70;;;;;;4933822;29;20032;-64
2021/12/05 11:24:58;;;;;;;54.85;30.52;;;5.30;98.70;;;;;;4934675;29;20036;-64
2021/12/05 11:27:28;;;;;;;56.08;30.08;;;5.30;98.70;;;;;;4928576;29;20055;-65
2021/12/05 11:30:13;;;;;;;55.50;28.98;;;5.30;98.70;;;;;;4929063;29;20031;-65
2021/12/05 11:33:08;;;;;;;56.65;28.95;;;5.30;98.70;;;;;;4933023;29;20494;-65
2021/12/05 11:35:34;;;;;;;;;;;5.40;98.70;;;;;;4934827;29;20055;-65
2021/12/05 11:38:08;;;;;;;60.40;30.35;;;5.40;98.70;;;;;;4947743;28;20016;-63
2021/12/05 11:41:05;;;;;;;64.60;33.33;;;5.30;98.70;;;;;;4933885;29;20094;-63
2021/12/05 11:43:35;;;;;;;69.55;32.35;;;5.30;98.60;;;;;;4934347;29;20054;-65
2021/12/05 11:46:15;;;;;;;58.80;30.73;;;5.30;98.60;;;;;;4935259;29;20107;-65
2021/12/05 11:48:45;;;;;;;59.17;30.67;;;5.30;98.60;;;;;;4937536;29;20036;-65
2021/12/05 11:51:23;;;;;;;65.15;31.52;;;5.30;98.60;;;;;;4933938;29;20044;-64
2021/12/05 11:53:59;;;;;;;69.55;33.10;;;5.30;98.60;;;;;;4932803;29;20101;-63
2021/12/05 11:56:31;;;;;;;63.22;33.10;;;5.30;98.50;;;;;;4941246;28;20035;-64
2021/12/05 11:59:10;;;;;;;62.45;34.15;;;5.20;98.40;;;;;;4931039;29;20043;-64
2021/12/05 12:01:43;;;;;;;56.08;29.70;;;5.10;98.30;;;;;;4934830;29;20036;-63
2021/12/05 12:04:11;;;;;;;63.42;34.33;;;5.00;98.40;;;;;;4934044;29;20551;-63
2021/12/05 12:06:37;;;;;;;62.20;31.98;;;5.10;98.50;;;;;;4934970;29;20142;-63
2021/12/05 12:09:04;;;;;;;61.38;30.00;;;5.00;98.50;;;;;;4933674;29;20032;-64
2021/12/05 12:11:31;;;;;;;66.15;32.95;;;5.00;98.50;;;;;;4934208;29;20032;-63
2021/12/05 12:13:56;;;;;;;64.22;32.15;;;5.10;98.60;;;;;;4933895;29;20078;-62
2021/12/05 12:16:22;;;;;;;62.30;32.60;;;5.10;98.60;;;;;;4933358;29;20491;-63
2021/12/05 12:18:49;;;;;;;64.85;32.95;;;5.10;98.60;;;;;;4933771;29;20031;-63
2021/12/05 12:21:21;;;;;;;62.75;31.13;;;5.10;98.60;;;;;;4934077;29;20488;-62
2021/12/05 12:23:50;;;;;;;64.45;32.40;;;5.00;98.50;;;;;;4933888;29;20476;-63
2021/12/05 12:26:16;;;;;;;58.75;31.33;;;4.90;98.60;;;;;;4934614;29;20126;-63
2021/12/05 12:28:42;;;;;;;53.05;28.73;;;4.90;98.60;;;;;;4933533;28;20115;-63
2021/12/05 12:31:13;;;;;;;54.42;28.58;;;4.90;98.70;;;;;;4942831;29;20034;-66
2021/12/05 12:33:55;;;;;;;49.17;28.23;;;4.90;98.60;;;;;;4930934;29;20507;-65
2021/12/05 12:36:42;;;;;;;53.67;28.38;;;4.90;98.40;;;;;;4933537;29;20090;-64
2021/12/05 12:39:16;;;;;;;51.55;29.80;;;4.70;98.40;;;;;;4930640;29;20039;-64
2021/12/05 12:41:59;;;;;;;52.97;30.38;;;4.70;98.40;;;;;;4941773;29;20027;-64
2021/12/05 12:44:25;;;;;;;55.85;29.15;;;4.70;98.50;;;;;;4929661;29;20050;-64
2021/12/05 12:46:56;;;;;;;51.35;28.55;;;4.70;98.50;;;;;;4933401;29;20120;-63
2021/12/05 12:49:46;;;;;;;54.00;29.17;;;4.70;98.40;;;;;;4931661;29;20142;-63
2021/12/05 12:52:15;;;;;;;53.78;28.50;;;4.70;98.30;;;;;;4934917;29;20051;-65
2021/12/05 12:54:45;;;;;;;53.75;29.20;;;4.60;98.30;;;;;;4932760;29;20124;-64
2021/12/05 12:57:22;;;;;;;57.15;31.65;;;4.70;98.30;;;;;;4932242;29;20024;-64
2021/12/05 12:59:58;;;;;;;53.15;28.58;;;4.60;98.30;;;;;;4944253;29;20031;-64
2021/12/05 13:05:54;;;;;;;52.92;28.27;;;4.60;98.40;;;;;;4926968;29;20398;-64
2021/12/05 13:11:17;;;;;;;55.10;28.48;;;4.60;98.30;;;;;;4927055;29;20035;-65
2021/12/05 13:13:45;;;;;;;58.20;29.55;;;4.60;98.30;;;;;;4926430;29;20033;-65
2021/12/05 13:16:20;;;;;;;51.13;29.17;;;4.60;98.30;;;;;;4931853;29;20028;-65
2021/12/05 13:18:49;;;;;;;52.20;27.80;;;4.60;98.30;;;;;;4930982;29;20051;-65
2021/12/05 13:21:29;;;;;;;55.45;28.90;;;4.60;98.30;;;;;;4932605;29;20032;-65
2021/12/05 13:23:55;;;;;;;48.08;26.27;;;4.60;98.30;;;;;;4933394;29;20040;-65
2021/12/05 13:26:42;;;;;;;50.58;26.92;;;4.60;98.20;;;;;;4933851;29;20054;-65
2021/12/05 13:29:15;;;;;;;50.38;27.27;;;4.60;98.20;;;;;;4922951;29;20086;-64
2021/12/05 13:31:56;;;;;;;48.50;27.73;;;4.60;98.20;;;;;;4931911;29;20023;-64
2021/12/05 13:34:43;;;;;;;49.03;26.25;;;4.60;98.10;;;;;;4930447;29;20111;-64
2021/12/05 13:37:09;;;;;;;49.33;26.67;;;4.60;98.10;;;;;;4933331;29;20028;-63
2021/12/05 13:39:43;;;;;;;48.33;25.63;;;4.60;98.00;;;;;;4948547;29;20376;-64
2021/12/05 13:42:21;;;;;;;51.47;27.55;;;4.60;98.00;;;;;;4932217;29;20048;-64
2021/12/05 13:45:16;;;;;;;47.00;26.40;;;4.60;97.90;;;;;;4930272;29;20043;-64
2021/12/05 13:47:53;;;;;;;52.67;29.02;;;4.50;97.70;;;;;;4932649;29;20095;-64
2021/12/05 13:50:19;;;;;;;53.00;27.95;;;4.40;97.80;;;;;;4933253;29;20055;-64
2021/12/05 13:53:14;;;;;;;55.22;27.30;;;4.40;97.90;;;;;;4932488;29;20094;-64
2021/12/05 13:55:56;;;;;;;58.28;29.52;;;4.40;98.10;;;;;;4918760;29;20503;-64
2021/12/05 13:58:22;;;;;;;58.13;30.80;;;4.30;98.10;;;;;;4929070;29;20046;-64
2021/12/05 14:00:56;;;;;;;62.13;30.13;;;4.20;98.20;;;;;;4933604;29;20706;-64
2021/12/05 14:03:46;;;;;;;57.45;31.27;;;4.30;98.30;;;;;;4930997;29;20040;-64
2021/12/05 14:06:29;;;;;;;63.58;32.30;;;4.20;98.30;;;;;;4930002;29;20032;-64
2021/12/05 14:09:10;;;;;;;59.13;29.52;;;4.20;98.40;;;;;;4933234;29;20543;-64
2021/12/05 14:11:43;;;;;;;64.30;32.70;;;4.10;98.40;;;;;;4932707;29;20212;-64
2021/12/05 14:14:09;;;;;;;68.20;33.15;;;4.10;98.50;;;;;;4935122;29;20543;-64
2021/12/05 14:16:37;;;;;;;60.35;29.77;;;4.00;98.60;;;;;;4936241;29;20027;-64
2021/12/05 14:19:08;;;;;;;57.03;29.20;;;4.00;98.50;;;;;;4937108;29;20027;-60
2021/12/05 14:21:39;;;;;;;58.63;30.17;;;4.00;98.60;;;;;;4935968;29;20056;-60
2021/12/05 14:24:05;;;;;;;59.42;29.75;;;4.00;98.60;;;;;;4930601;29;20131;-60
2021/12/05 14:26:32;;;;;;;56.63;30.20;;;4.00;98.60;;;;;;4934441;29;20589;-60
2021/12/05 14:29:06;;;;;;;53.90;27.52;;;4.00;98.60;;;;;;4935096;29;20114;-60
2021/12/05 14:31:37;;;;;;;51.40;27.13;;;4.00;98.50;;;;;;4933466;29;20047;-60
2021/12/05 14:34:04;;;;;;;50.42;26.13;;;4.00;98.40;;;;;;4934548;29;20043;-61
2021/12/05 14:36:35;;;;;;;49.33;26.67;;;4.00;98.40;;;;;;4933043;29;20101;-61
2021/12/05 14:39:28;;;;;;;51.38;29.42;;;4.00;98.40;;;;;;4935287;29;20118;-61
2021/12/05 14:42:00;;;;;;;50.50;27.30;;;3.90;98.30;;;;;;4934194;29;20135;-61
2021/12/05 14:44:27;;;;;;;49.42;27.30;;;4.00;98.40;;;;;;4932786;29;20122;-61
2021/12/05 14:46:59;;;;;;;48.55;26.77;;;3.90;98.40;;;;;;4933063;29;20420;-61
2021/12/05 14:49:28;;;;;;;54.33;28.35;;;4.00;98.40;;;;;;4928690;29;20404;-61
2021/12/05 14:51:55;;;;;;;57.88;29.08;;;4.00;98.40;;;;;;4925894;29;20086;-61
2021/12/05 14:54:36;;;;;;;54.95;29.27;;;4.00;98.50;;;;;;4926867;29;20157;-61
2021/12/05 14:57:13;;;;;;;54.00;28.50;;;4.10;98.50;;;;;;4928970;29;20407;-60
2021/12/05 14:59:41;;;;;;;54.20;28.58;;;4.10;98.40;;;;;;4933836;29;20032;-60
2021/12/05 15:02:08;;;;;;;47.08;26.50;;;4.10;98.40;;;;;;4933905;29;20436;-60
2021/12/05 15:04:40;;;;;;;52.85;27.65;;;4.00;98.40;;;;;;4940513;29;20376;-61
2021/12/05 15:07:06;;;;;;;56.53;30.58;;;4.10;98.50;;;;;;4932632;29;20070;-61
2021/12/05 15:09:42;;;;;;;56.13;29.17;;;4.00;98.40;;;;;;4932908;29;20023;-61
2021/12/05 15:12:16;;;;;;;54.78;29.80;;;4.00;98.40;;;;;;4933971;29;20399;-60
2021/12/05 15:14:44;;;;;;;51.75;27.45;;;4.00;98.50;;;;;;4933877;29;20036;-60
2021/12/05 15:17:14;;;;;;;58.55;30.83;;;3.90;98.50;;;;;;4933730;29;20032;-61
2021/12/05 15:19:46;;;;;;;55.22;28.38;;;3.90;98.70;;;;;;4934496;29;20383;-61
2021/12/05 15:22:13;;;;;;;51.53;29.50;;;3.90;98.70;;;;;;4941945;28;20027;-61
2021/12/05 15:24:40;;;;;;;55.35;30.83;;;3.90;98.70;;;;;;4932923;29;20111;-61
2021/12/05 15:27:17;;;;;;;58.35;30.88;;;3.90;98.80;;;;;;4938939;29;20495;-61
2021/12/05 15:29:55;;;;;;;58.20;30.42;;;3.80;98.80;;;;;;4928266;29;20068;-61
2021/12/05 15:32:26;;;;;;;56.65;28.98;;;3.80;98.80;;;;;;4933018;29;20095;-59
2021/12/05 15:34:56;;;;;;;59.03;30.27;;;3.90;98.80;;;;;;4933879;29;20515;-60
2021/12/05 15:37:22;;;;;;;58.60;28.88;;;4.00;98.80;;;;;;4938830;29;20082;-61
2021/12/05 15:39:52;;;;;;;55.22;28.65;;;4.00;98.80;;;;;;4935721;29;20024;-61
2021/12/05 15:42:28;;;;;;;59.45;29.63;;;4.00;98.80;;;;;;4935667;28;20043;-60
2021/12/05 15:44:57;;;;;;;56.33;28.63;;;3.90;98.70;;;;;;4933652;29;20468;-61
2021/12/05 15:47:25;;;;;;;59.83;29.98;;;3.90;98.70;;;;;;4935250;29;20408;-61
2021/12/05 15:50:00;;;;;;;59.60;31.70;;;3.90;98.70;;;;;;4931633;29;20054;-61
2021/12/05 15:52:49;;;;;;;62.03;30.65;;;3.90;98.80;;;;;;4931501;29;20087;-61
2021/12/05 15:55:40;;;;;;;69.60;31.35;;;3.80;98.90;;;;;;4935402;29;20492;-61
2021/12/05 15:58:09;;;;;;;62.97;32.90;;;3.90;99.00;;;;;;4923516;29;20044;-61
2021/12/05 16:00:41;;;;;;;59.78;29.45;;;3.90;98.90;;;;;;4931808;29;20571;-61
2021/12/05 16:03:10;;;;;;;62.40;30.52;;;3.80;98.90;;;;;;4926718;29;20491;-61
2021/12/05 16:05:37;;;;;;;64.07;31.27;;;3.80;99.00;;;;;;4931268;29;20043;-61
2021/12/05 16:08:08;;;;;;;69.68;31.48;;;3.80;99.20;;;;;;4932629;28;20038;-61
2021/12/05 16:10:36;;;;;;;68.35;34.25;;;3.80;99.00;;;;;;4932891;29;20087;-61
2021/12/05 16:13:17;;;;;;;63.42;31.55;;;3.80;99.10;;;;;;4933425;29;20040;-61
2021/12/05 16:15:46;;;;;;;61.90;32.08;;;3.80;99.10;;;;;;4934959;29;20087;-61
2021/12/05 16:18:13;;;;;;;67.68;31.67;;;3.90;99.00;;;;;;4929794;29;20487;-61
2021/12/05 16:20:46;;;;;;;61.78;29.95;;;3.90;99.00;;;;;;4933906;29;20111;-61
2021/12/05 16:23:26;;;;;;;72.00;31.63;;;3.90;99.00;;;;;;4934111;29;20546;-61
2021/12/05 16:26:03;;;;;;;66.72;33.05;;;4.00;99.10;;;;;;4948929;28;20051;-61
2021/12/05 16:28:37;;;;;;;66.55;33.40;;;3.90;99.10;;;;;;4934164;29;20490;-61
2021/12/05 16:31:35;;;;;;;66.05;31.35;;;3.90;99.00;;;;;;4933012;29;20035;-60
2021/12/05 16:34:13;;;;;;;70.03;32.42;;;3.90;99.10;;;;;;4931280;29;20122;-60
2021/12/05 16:36:40;;;;;;;66.30;31.45;;;3.90;99.10;;;;;;4932738;28;20028;-61
2021/12/05 16:39:16;;;;;;;66.72;32.97;;;3.90;99.00;;;;;;4930488;29;20024;-60
2021/12/05 16:41:45;;;;;;;65.00;33.72;;;3.90;99.10;;;;;;4921755;29;20046;-60
2021/12/05 16:44:14;;;;;;;63.97;32.88;;;4.00;99.10;;;;;;4934589;29;20036;-60
2021/12/05 16:46:43;;;;;;;66.80;32.80;;;3.90;99.10;;;;;;4934696;29;20031;-60
2021/12/05 16:49:13;;;;;;;62.28;29.88;;;3.90;99.30;;;;;;4933479;29;20498;-60
2021/12/05 16:51:59;;;;;;;66.10;35.10;;;3.90;99.10;;;;;;4931043;29;20415;-61
2021/12/05 16:54:30;;;;;;;64.60;30.83;;;4.00;99.00;;;;;;4928826;29;20062;-61
2021/12/05 16:57:00;;;;;;;66.43;32.72;;;3.90;99.00;;;;;;4925385;29;20507;-61
2021/12/05 16:59:55;;;;;;;63.30;30.23;;;3.80;99.10;;;;;;4933059;29;20090;-61
2021/12/05 17:02:25;;;;;;;70.25;32.13;;;3.70;99.10;;;;;;4904800;29;20094;-60
2021/12/05 17:05:26;;;;;;;69.90;32.38;;;3.70;99.20;;;;;;4931885;29;20043;-61
2021/12/05 17:08:06;;;;;;;68.55;33.15;;;3.80;99.30;;;;;;4929025;29;20107;-60
2021/12/05 17:10:38;;;;;;;63.42;31.35;;;3.80;99.20;;;;;;4928185;29;20066;-61
2021/12/05 17:13:21;;;;;;;70.00;34.25;;;3.80;99.20;;;;;;4926378;29;20143;-61
2021/12/05 17:15:54;;;;;;;72.70;34.13;;;3.80;99.30;;;;;;4931627;29;20067;-61
2021/12/05 17:18:23;;;;;;;71.72;33.78;;;3.80;99.40;;;;;;4932115;29;20031;-61
2021/12/05 17:20:58;;;;;;;79.18;36.28;;;3.70;99.30;;;;;;4932327;29;20062;-61
2021/12/05 17:23:31;;;;;;;78.45;38.05;;;3.70;99.50;;;;;;4931337;29;20119;-61